sensor_id;sensor_type;location;lat;lon;timestamp;temperature;humidity
20416;DHT22;10367;52.202;5.996;2023-05-19T00:01:15;8.00;99.90
20416;DHT22;10367;52.202;5.996;2023-05-19T00:03:51;8.00;99.90
20416;DHT22;10367;52.202;5.996;2023-05-19T00:06:22;8.00;99.90
20416;DHT22;10367;52.202;5.996;2023-05-19T00:08:56;7.90;99.90
20416;DHT22;10367;52.202;5.996;2023-05-19T00:11:26;7.90;99.90
20416;DHT22;10367;52.202;5.996;2023-05-19T00:13:56;7.80;99.90
20416;DHT22;10367;52.202;5.996;2023-05-19T00:16:26;7.80;99.90
20416;DHT22;10367;52.202;5.996;2023-05-19T00:18:56;7.70;99.90
20416;DHT22;10367;52.202;5.996;2023-05-19T00:21:27;7.70;99.90
20416;DHT22;10367;52.202;5.996;2023-05-19T00:23:57;7.70;99.90
20416;DHT22;10367;52.202;5.996;2023-05-19T00:26:26;7.60;99.90
20416;DHT22;10367;52.202;5.996;2023-05-19T00:28:55;7.60;99.90
20416;DHT22;10367;52.202;5.996;2023-05-19T00:31:24;7.60;99.90
20416;DHT22;10367;52.202;5.996;2023-05-19T00:33:53;7.50;99.90
20416;DHT22;10367;52.202;5.996;2023-05-19T00:36:23;7.50;99.90
20416;DHT22;10367;52.202;5.996;2023-05-19T00:38:52;7.50;99.90
20416;DHT22;10367;52.202;5.996;2023-05-19T00:41:22;7.50;99.90
20416;DHT22;10367;52.202;5.996;2023-05-19T00:43:51;7.50;99.90
20416;DHT22;10367;52.202;5.996;2023-05-19T00:46:19;7.50;99.90
20416;DHT22;10367;52.202;5.996;2023-05-19T00:48:49;7.50;99.90
20416;DHT22;10367;52.202;5.996;2023-05-19T00:51:18;7.50;99.90
20416;DHT22;10367;52.202;5.996;2023-05-19T00:53:47;7.60;99.90
20416;DHT22;10367;52.202;5.996;2023-05-19T00:56:19;7.50;99.90
20416;DHT22;10367;52.202;5.996;2023-05-19T00:58:51;7.50;99.90
20416;DHT22;10367;52.202;5.996;2023-05-19T01:01:20;7.50;99.90
20416;DHT22;10367;52.202;5.996;2023-05-19T01:03:49;7.50;99.90
20416;DHT22;10367;52.202;5.996;2023-05-19T01:06:18;7.40;99.90
20416;DHT22;10367;52.202;5.996;2023-05-19T01:08:47;7.40;99.90
20416;DHT22;10367;52.202;5.996;2023-05-19T01:11:15;7.40;99.90
20416;DHT22;10367;52.202;5.996;2023-05-19T01:13:44;7.40;99.90
20416;DHT22;10367;52.202;5.996;2023-05-19T01:16:25;7.30;99.90
20416;DHT22;10367;52.202;5.996;2023-05-19T01:19:00;7.30;99.90
20416;DHT22;10367;52.202;5.996;2023-05-19T01:22:10;7.30;99.90
20416;DHT22;10367;52.202;5.996;2023-05-19T01:25:07;7.30;99.90
20416;DHT22;10367;52.202;5.996;2023-05-19T01:27:53;7.30;99.90
20416;DHT22;10367;52.202;5.996;2023-05-19T01:30:30;7.40;99.90
20416;DHT22;10367;52.202;5.996;2023-05-19T01:33:02;7.30;99.90
20416;DHT22;10367;52.202;5.996;2023-05-19T01:35:34;7.30;99.90
20416;DHT22;10367;52.202;5.996;2023-05-19T01:38:07;7.30;99.90
20416;DHT22;10367;52.202;5.996;2023-05-19T01:40:37;7.30;99.90
20416;DHT22;10367;52.202;5.996;2023-05-19T01:43:08;7.30;99.90
20416;DHT22;10367;52.202;5.996;2023-05-19T01:45:40;7.20;99.90
20416;DHT22;10367;52.202;5.996;2023-05-19T01:48:09;7.10;99.90
20416;DHT22;10367;52.202;5.996;2023-05-19T01:50:38;7.10;99.90
20416;DHT22;10367;52.202;5.996;2023-05-19T01:53:07;7.00;99.90
20416;DHT22;10367;52.202;5.996;2023-05-19T01:55:42;7.00;99.90
20416;DHT22;10367;52.202;5.996;2023-05-19T01:58:17;7.00;99.90
20416;DHT22;10367;52.202;5.996;2023-05-19T02:00:53;6.90;99.90
20416;DHT22;10367;52.202;5.996;2023-05-19T02:03:38;6.90;99.90
20416;DHT22;10367;52.202;5.996;2023-05-19T02:06:21;6.90;99.90
20416;DHT22;10367;52.202;5.996;2023-05-19T02:08:56;6.90;99.90
20416;DHT22;10367;52.202;5.996;2023-05-19T02:11:30;6.90;99.90
20416;DHT22;10367;52.202;5.996;2023-05-19T02:14:07;6.90;99.90
20416;DHT22;10367;52.202;5.996;2023-05-19T02:16:38;6.80;99.90
20416;DHT22;10367;52.202;5.996;2023-05-19T02:19:19;6.80;99.90
20416;DHT22;10367;52.202;5.996;2023-05-19T02:21:48;6.70;99.90
20416;DHT22;10367;52.202;5.996;2023-05-19T02:24:17;6.60;99.90
20416;DHT22;10367;52.202;5.996;2023-05-19T02:26:49;6.60;99.90
20416;DHT22;10367;52.202;5.996;2023-05-19T02:29:18;6.70;99.90
20416;DHT22;10367;52.202;5.996;2023-05-19T02:31:49;6.70;99.90
20416;DHT22;10367;52.202;5.996;2023-05-19T02:34:17;6.70;99.90
20416;DHT22;10367;52.202;5.996;2023-05-19T02:36:46;6.70;99.90
20416;DHT22;10367;52.202;5.996;2023-05-19T02:39:16;6.60;99.90
20416;DHT22;10367;52.202;5.996;2023-05-19T02:41:45;6.50;99.90
20416;DHT22;10367;52.202;5.996;2023-05-19T02:44:13;6.60;99.90
20416;DHT22;10367;52.202;5.996;2023-05-19T02:46:42;6.60;99.90
20416;DHT22;10367;52.202;5.996;2023-05-19T02:49:12;6.50;99.90
20416;DHT22;10367;52.202;5.996;2023-05-19T02:51:41;6.40;99.90
20416;DHT22;10367;52.202;5.996;2023-05-19T02:54:10;6.40;99.90
20416;DHT22;10367;52.202;5.996;2023-05-19T02:56:39;6.50;99.90
20416;DHT22;10367;52.202;5.996;2023-05-19T02:59:08;6.50;99.90
20416;DHT22;10367;52.202;5.996;2023-05-19T03:01:39;6.50;99.90
20416;DHT22;10367;52.202;5.996;2023-05-19T03:04:08;6.40;99.90
20416;DHT22;10367;52.202;5.996;2023-05-19T03:06:39;6.40;99.90
20416;DHT22;10367;52.202;5.996;2023-05-19T03:09:08;6.40;99.90
20416;DHT22;10367;52.202;5.996;2023-05-19T03:11:38;6.40;99.90
20416;DHT22;10367;52.202;5.996;2023-05-19T03:14:07;6.50;99.90
20416;DHT22;10367;52.202;5.996;2023-05-19T03:16:36;6.60;99.90
20416;DHT22;10367;52.202;5.996;2023-05-19T03:19:07;6.60;99.90
20416;DHT22;10367;52.202;5.996;2023-05-19T03:21:36;6.60;99.90
20416;DHT22;10367;52.202;5.996;2023-05-19T03:24:07;6.60;99.90
20416;DHT22;10367;52.202;5.996;2023-05-19T03:26:35;6.50;99.90
20416;DHT22;10367;52.202;5.996;2023-05-19T03:29:04;6.40;99.90
20416;DHT22;10367;52.202;5.996;2023-05-19T03:31:34;6.40;99.90
20416;DHT22;10367;52.202;5.996;2023-05-19T03:34:02;6.40;99.90
20416;DHT22;10367;52.202;5.996;2023-05-19T03:36:31;6.40;99.90
20416;DHT22;10367;52.202;5.996;2023-05-19T03:39:07;6.30;99.90
20416;DHT22;10367;52.202;5.996;2023-05-19T03:41:37;6.40;99.90
20416;DHT22;10367;52.202;5.996;2023-05-19T03:44:06;6.40;99.90
20416;DHT22;10367;52.202;5.996;2023-05-19T03:46:34;6.40;99.90
20416;DHT22;10367;52.202;5.996;2023-05-19T03:49:03;6.30;99.90
20416;DHT22;10367;52.202;5.996;2023-05-19T03:51:32;6.30;99.90
20416;DHT22;10367;52.202;5.996;2023-05-19T03:54:01;6.40;99.90
20416;DHT22;10367;52.202;5.996;2023-05-19T03:56:32;6.40;99.90
20416;DHT22;10367;52.202;5.996;2023-05-19T03:59:01;6.50;99.90
20416;DHT22;10367;52.202;5.996;2023-05-19T04:01:32;6.50;99.90
20416;DHT22;10367;52.202;5.996;2023-05-19T04:04:01;6.60;99.90
20416;DHT22;10367;52.202;5.996;2023-05-19T04:06:30;6.60;99.90
20416;DHT22;10367;52.202;5.996;2023-05-19T04:08:58;6.70;99.90
20416;DHT22;10367;52.202;5.996;2023-05-19T04:11:27;6.60;99.90
20416;DHT22;10367;52.202;5.996;2023-05-19T04:13:57;6.60;99.90
20416;DHT22;10367;52.202;5.996;2023-05-19T04:16:26;6.60;99.90
20416;DHT22;10367;52.202;5.996;2023-05-19T04:18:55;6.60;99.90
20416;DHT22;10367;52.202;5.996;2023-05-19T04:21:24;6.60;99.90
20416;DHT22;10367;52.202;5.996;2023-05-19T04:23:52;6.60;99.90
20416;DHT22;10367;52.202;5.996;2023-05-19T04:26:21;6.70;99.90
20416;DHT22;10367;52.202;5.996;2023-05-19T04:28:51;6.80;99.90
20416;DHT22;10367;52.202;5.996;2023-05-19T04:31:21;6.80;99.90
20416;DHT22;10367;52.202;5.996;2023-05-19T04:33:50;6.80;99.90
20416;DHT22;10367;52.202;5.996;2023-05-19T04:36:19;6.80;99.90
20416;DHT22;10367;52.202;5.996;2023-05-19T04:38:48;6.80;99.90
20416;DHT22;10367;52.202;5.996;2023-05-19T04:41:21;6.80;99.90
20416;DHT22;10367;52.202;5.996;2023-05-19T04:43:49;6.90;99.90
20416;DHT22;10367;52.202;5.996;2023-05-19T04:46:18;6.90;99.90
20416;DHT22;10367;52.202;5.996;2023-05-19T04:48:52;7.00;99.90
20416;DHT22;10367;52.202;5.996;2023-05-19T04:51:21;7.00;99.90
20416;DHT22;10367;52.202;5.996;2023-05-19T04:53:56;7.10;99.90
20416;DHT22;10367;52.202;5.996;2023-05-19T04:56:25;7.10;99.90
20416;DHT22;10367;52.202;5.996;2023-05-19T04:58:55;7.10;99.90
20416;DHT22;10367;52.202;5.996;2023-05-19T05:01:24;7.20;99.90
20416;DHT22;10367;52.202;5.996;2023-05-19T05:03:54;7.20;99.90
20416;DHT22;10367;52.202;5.996;2023-05-19T05:06:25;7.30;99.90
20416;DHT22;10367;52.202;5.996;2023-05-19T05:08:54;7.30;99.90
20416;DHT22;10367;52.202;5.996;2023-05-19T05:11:24;7.30;99.90
20416;DHT22;10367;52.202;5.996;2023-05-19T05:13:53;7.40;99.90
20416;DHT22;10367;52.202;5.996;2023-05-19T05:16:25;7.50;99.90
20416;DHT22;10367;52.202;5.996;2023-05-19T05:18:56;7.50;99.90
20416;DHT22;10367;52.202;5.996;2023-05-19T05:21:26;7.50;99.90
20416;DHT22;10367;52.202;5.996;2023-05-19T05:23:55;7.60;99.90
20416;DHT22;10367;52.202;5.996;2023-05-19T05:26:29;7.60;99.90
20416;DHT22;10367;52.202;5.996;2023-05-19T05:28:58;7.70;99.90
20416;DHT22;10367;52.202;5.996;2023-05-19T05:31:27;7.80;99.90
20416;DHT22;10367;52.202;5.996;2023-05-19T05:33:57;7.90;99.90
20416;DHT22;10367;52.202;5.996;2023-05-19T05:36:26;7.90;99.90
20416;DHT22;10367;52.202;5.996;2023-05-19T05:38:55;8.00;99.90
20416;DHT22;10367;52.202;5.996;2023-05-19T05:41:23;8.00;99.90
20416;DHT22;10367;52.202;5.996;2023-05-19T05:43:53;8.00;99.90
20416;DHT22;10367;52.202;5.996;2023-05-19T05:46:22;8.10;99.90
20416;DHT22;10367;52.202;5.996;2023-05-19T05:48:51;8.20;99.90
20416;DHT22;10367;52.202;5.996;2023-05-19T05:51:22;8.20;99.90
20416;DHT22;10367;52.202;5.996;2023-05-19T05:53:53;8.30;99.90
20416;DHT22;10367;52.202;5.996;2023-05-19T05:56:22;8.40;99.90
20416;DHT22;10367;52.202;5.996;2023-05-19T05:58:53;8.40;99.90
20416;DHT22;10367;52.202;5.996;2023-05-19T06:01:21;8.50;99.90
20416;DHT22;10367;52.202;5.996;2023-05-19T06:03:50;8.60;99.90
20416;DHT22;10367;52.202;5.996;2023-05-19T06:06:20;8.70;99.90
20416;DHT22;10367;52.202;5.996;2023-05-19T06:08:49;8.80;99.90
20416;DHT22;10367;52.202;5.996;2023-05-19T06:11:18;8.80;99.90
20416;DHT22;10367;52.202;5.996;2023-05-19T06:13:47;8.90;99.90
20416;DHT22;10367;52.202;5.996;2023-05-19T06:16:16;8.90;99.90
20416;DHT22;10367;52.202;5.996;2023-05-19T06:18:45;9.00;99.90
20416;DHT22;10367;52.202;5.996;2023-05-19T06:21:13;9.00;99.90
20416;DHT22;10367;52.202;5.996;2023-05-19T06:23:45;9.10;99.90
20416;DHT22;10367;52.202;5.996;2023-05-19T06:26:14;9.20;99.90
20416;DHT22;10367;52.202;5.996;2023-05-19T06:28:43;9.30;99.90
20416;DHT22;10367;52.202;5.996;2023-05-19T06:31:11;9.40;99.90
20416;DHT22;10367;52.202;5.996;2023-05-19T06:33:40;9.50;99.90
20416;DHT22;10367;52.202;5.996;2023-05-19T06:36:09;9.70;99.90
20416;DHT22;10367;52.202;5.996;2023-05-19T06:38:40;9.80;99.90
20416;DHT22;10367;52.202;5.996;2023-05-19T06:41:10;9.90;99.90
20416;DHT22;10367;52.202;5.996;2023-05-19T06:43:40;10.10;99.90
20416;DHT22;10367;52.202;5.996;2023-05-19T06:46:09;10.20;99.90
20416;DHT22;10367;52.202;5.996;2023-05-19T06:48:39;10.40;99.90
20416;DHT22;10367;52.202;5.996;2023-05-19T06:51:08;10.50;99.90
20416;DHT22;10367;52.202;5.996;2023-05-19T06:53:37;10.60;99.90
20416;DHT22;10367;52.202;5.996;2023-05-19T06:56:06;10.70;99.90
20416;DHT22;10367;52.202;5.996;2023-05-19T06:58:36;10.90;99.90
20416;DHT22;10367;52.202;5.996;2023-05-19T07:01:05;11.10;99.90
20416;DHT22;10367;52.202;5.996;2023-05-19T07:03:34;11.30;99.90
20416;DHT22;10367;52.202;5.996;2023-05-19T07:06:03;11.50;99.90
20416;DHT22;10367;52.202;5.996;2023-05-19T07:08:34;11.60;99.90
20416;DHT22;10367;52.202;5.996;2023-05-19T07:11:04;11.70;99.90
20416;DHT22;10367;52.202;5.996;2023-05-19T07:13:32;11.90;99.90
20416;DHT22;10367;52.202;5.996;2023-05-19T07:16:03;12.00;99.90
20416;DHT22;10367;52.202;5.996;2023-05-19T07:18:32;12.20;99.90
20416;DHT22;10367;52.202;5.996;2023-05-19T07:21:00;12.40;99.90
20416;DHT22;10367;52.202;5.996;2023-05-19T07:23:29;12.70;99.90
20416;DHT22;10367;52.202;5.996;2023-05-19T07:25:59;12.80;99.90
20416;DHT22;10367;52.202;5.996;2023-05-19T07:28:28;12.90;99.90
20416;DHT22;10367;52.202;5.996;2023-05-19T07:30:56;13.00;99.90
20416;DHT22;10367;52.202;5.996;2023-05-19T07:33:27;13.20;99.90
20416;DHT22;10367;52.202;5.996;2023-05-19T07:35:55;13.40;99.90
20416;DHT22;10367;52.202;5.996;2023-05-19T07:38:24;13.50;99.90
20416;DHT22;10367;52.202;5.996;2023-05-19T07:40:54;13.60;99.90
20416;DHT22;10367;52.202;5.996;2023-05-19T07:43:23;13.90;99.90
20416;DHT22;10367;52.202;5.996;2023-05-19T07:45:52;14.00;99.90
20416;DHT22;10367;52.202;5.996;2023-05-19T07:48:22;14.10;99.90
20416;DHT22;10367;52.202;5.996;2023-05-19T07:50:53;14.30;99.90
20416;DHT22;10367;52.202;5.996;2023-05-19T07:53:22;14.40;99.90
20416;DHT22;10367;52.202;5.996;2023-05-19T07:55:51;14.60;99.90
20416;DHT22;10367;52.202;5.996;2023-05-19T07:58:21;14.80;99.90
20416;DHT22;10367;52.202;5.996;2023-05-19T08:00:49;14.80;99.90
20416;DHT22;10367;52.202;5.996;2023-05-19T08:03:21;14.90;99.90
20416;DHT22;10367;52.202;5.996;2023-05-19T08:05:50;15.00;99.90
20416;DHT22;10367;52.202;5.996;2023-05-19T08:08:20;15.20;99.90
20416;DHT22;10367;52.202;5.996;2023-05-19T08:10:49;15.30;99.90
20416;DHT22;10367;52.202;5.996;2023-05-19T08:13:18;15.40;99.90
20416;DHT22;10367;52.202;5.996;2023-05-19T08:15:47;15.30;99.90
20416;DHT22;10367;52.202;5.996;2023-05-19T08:18:16;15.30;99.90
20416;DHT22;10367;52.202;5.996;2023-05-19T08:20:44;15.40;99.90
20416;DHT22;10367;52.202;5.996;2023-05-19T08:23:13;15.60;99.90
20416;DHT22;10367;52.202;5.996;2023-05-19T08:25:46;15.80;99.90
20416;DHT22;10367;52.202;5.996;2023-05-19T08:28:16;15.90;99.90
20416;DHT22;10367;52.202;5.996;2023-05-19T08:30:44;16.00;99.90
20416;DHT22;10367;52.202;5.996;2023-05-19T08:33:13;16.20;99.90
20416;DHT22;10367;52.202;5.996;2023-05-19T08:35:42;16.20;99.90
20416;DHT22;10367;52.202;5.996;2023-05-19T08:38:11;16.10;99.90
20416;DHT22;10367;52.202;5.996;2023-05-19T08:40:40;16.00;99.90
20416;DHT22;10367;52.202;5.996;2023-05-19T08:43:12;15.80;99.90
20416;DHT22;10367;52.202;5.996;2023-05-19T08:45:42;15.80;99.90
20416;DHT22;10367;52.202;5.996;2023-05-19T08:48:14;15.90;99.90
20416;DHT22;10367;52.202;5.996;2023-05-19T08:50:51;16.00;99.90
20416;DHT22;10367;52.202;5.996;2023-05-19T08:53:26;16.10;99.90
20416;DHT22;10367;52.202;5.996;2023-05-19T08:56:04;16.20;99.90
20416;DHT22;10367;52.202;5.996;2023-05-19T08:58:39;16.40;99.90
20416;DHT22;10367;52.202;5.996;2023-05-19T09:01:12;16.50;99.90
20416;DHT22;10367;52.202;5.996;2023-05-19T09:03:46;16.50;99.90
20416;DHT22;10367;52.202;5.996;2023-05-19T09:06:18;16.40;99.90
20416;DHT22;10367;52.202;5.996;2023-05-19T09:08:47;16.40;99.90
20416;DHT22;10367;52.202;5.996;2023-05-19T09:11:16;16.40;99.90
20416;DHT22;10367;52.202;5.996;2023-05-19T09:13:46;16.50;99.90
20416;DHT22;10367;52.202;5.996;2023-05-19T09:16:15;16.90;99.90
20416;DHT22;10367;52.202;5.996;2023-05-19T09:18:53;17.10;99.90
20416;DHT22;10367;52.202;5.996;2023-05-19T09:21:27;17.30;99.90
20416;DHT22;10367;52.202;5.996;2023-05-19T09:24:02;17.40;99.90
20416;DHT22;10367;52.202;5.996;2023-05-19T09:26:35;17.20;99.90
20416;DHT22;10367;52.202;5.996;2023-05-19T09:29:15;17.20;99.90
20416;DHT22;10367;52.202;5.996;2023-05-19T09:31:47;17.10;99.90
20416;DHT22;10367;52.202;5.996;2023-05-19T09:34:18;17.00;99.90
20416;DHT22;10367;52.202;5.996;2023-05-19T09:36:47;17.20;99.90
20416;DHT22;10367;52.202;5.996;2023-05-19T09:39:17;17.40;99.90
20416;DHT22;10367;52.202;5.996;2023-05-19T09:41:50;17.40;99.90
20416;DHT22;10367;52.202;5.996;2023-05-19T09:44:22;17.50;99.90
20416;DHT22;10367;52.202;5.996;2023-05-19T09:46:55;17.50;99.90
20416;DHT22;10367;52.202;5.996;2023-05-19T09:49:25;17.60;99.90
20416;DHT22;10367;52.202;5.996;2023-05-19T09:51:56;17.80;99.90
20416;DHT22;10367;52.202;5.996;2023-05-19T09:54:25;18.10;99.90
20416;DHT22;10367;52.202;5.996;2023-05-19T09:56:56;18.10;99.90
20416;DHT22;10367;52.202;5.996;2023-05-19T09:59:28;18.30;99.90
20416;DHT22;10367;52.202;5.996;2023-05-19T10:02:00;18.60;99.90
20416;DHT22;10367;52.202;5.996;2023-05-19T10:04:30;18.70;97.90
20416;DHT22;10367;52.202;5.996;2023-05-19T10:06:58;18.60;97.90
20416;DHT22;10367;52.202;5.996;2023-05-19T10:09:33;18.70;97.00
20416;DHT22;10367;52.202;5.996;2023-05-19T10:12:04;18.70;97.10
20416;DHT22;10367;52.202;5.996;2023-05-19T10:14:35;18.50;97.60
20416;DHT22;10367;52.202;5.996;2023-05-19T10:17:05;18.90;97.00
20416;DHT22;10367;52.202;5.996;2023-05-19T10:19:36;19.30;96.70
20416;DHT22;10367;52.202;5.996;2023-05-19T10:22:05;19.00;96.80
20416;DHT22;10367;52.202;5.996;2023-05-19T10:24:34;19.00;96.60
20416;DHT22;10367;52.202;5.996;2023-05-19T10:27:06;18.90;96.30
20416;DHT22;10367;52.202;5.996;2023-05-19T10:29:40;18.70;96.20
20416;DHT22;10367;52.202;5.996;2023-05-19T10:32:13;18.40;96.00
20416;DHT22;10367;52.202;5.996;2023-05-19T10:35:08;18.60;95.50
20416;DHT22;10367;52.202;5.996;2023-05-19T10:37:43;18.70;95.50
20416;DHT22;10367;52.202;5.996;2023-05-19T10:40:20;19.00;95.00
20416;DHT22;10367;52.202;5.996;2023-05-19T10:43:01;19.20;94.00
20416;DHT22;10367;52.202;5.996;2023-05-19T10:45:41;19.20;93.20
20416;DHT22;10367;52.202;5.996;2023-05-19T10:48:13;19.00;93.10
20416;DHT22;10367;52.202;5.996;2023-05-19T10:50:46;18.60;93.70
20416;DHT22;10367;52.202;5.996;2023-05-19T10:53:15;18.60;93.40
20416;DHT22;10367;52.202;5.996;2023-05-19T10:55:50;18.70;93.80
20416;DHT22;10367;52.202;5.996;2023-05-19T10:58:38;18.80;93.60
20416;DHT22;10367;52.202;5.996;2023-05-19T11:01:12;19.00;93.10
20416;DHT22;10367;52.202;5.996;2023-05-19T11:03:46;19.40;92.70
20416;DHT22;10367;52.202;5.996;2023-05-19T11:06:25;19.50;91.70
20416;DHT22;10367;52.202;5.996;2023-05-19T11:08:58;19.20;91.80
20416;DHT22;10367;52.202;5.996;2023-05-19T11:11:43;19.10;91.50
20416;DHT22;10367;52.202;5.996;2023-05-19T11:14:14;19.30;91.60
20416;DHT22;10367;52.202;5.996;2023-05-19T11:16:47;19.30;91.40
20416;DHT22;10367;52.202;5.996;2023-05-19T11:19:24;19.20;91.30
20416;DHT22;10367;52.202;5.996;2023-05-19T11:21:56;19.50;91.00
20416;DHT22;10367;52.202;5.996;2023-05-19T11:24:35;19.50;90.60
20416;DHT22;10367;52.202;5.996;2023-05-19T11:27:18;19.20;91.20
20416;DHT22;10367;52.202;5.996;2023-05-19T11:29:48;19.50;90.90
20416;DHT22;10367;52.202;5.996;2023-05-19T11:32:19;19.70;90.60
20416;DHT22;10367;52.202;5.996;2023-05-19T11:34:49;19.70;90.20
20416;DHT22;10367;52.202;5.996;2023-05-19T11:37:17;19.90;88.70
20416;DHT22;10367;52.202;5.996;2023-05-19T11:39:46;19.90;89.20
20416;DHT22;10367;52.202;5.996;2023-05-19T11:42:15;20.10;88.50
20416;DHT22;10367;52.202;5.996;2023-05-19T11:44:44;20.30;87.30
20416;DHT22;10367;52.202;5.996;2023-05-19T11:47:14;19.90;87.40
20416;DHT22;10367;52.202;5.996;2023-05-19T11:49:46;19.90;87.60
20416;DHT22;10367;52.202;5.996;2023-05-19T11:52:15;20.60;87.70
20416;DHT22;10367;52.202;5.996;2023-05-19T11:54:47;20.60;84.80
20416;DHT22;10367;52.202;5.996;2023-05-19T11:57:16;20.20;85.60
20416;DHT22;10367;52.202;5.996;2023-05-19T11:59:45;20.20;84.60
20416;DHT22;10367;52.202;5.996;2023-05-19T12:02:17;20.00;84.00
20416;DHT22;10367;52.202;5.996;2023-05-19T12:04:48;20.30;83.90
20416;DHT22;10367;52.202;5.996;2023-05-19T12:07:18;20.50;82.70
20416;DHT22;10367;52.202;5.996;2023-05-19T12:09:49;20.60;81.50
20416;DHT22;10367;52.202;5.996;2023-05-19T12:12:19;20.70;82.00
20416;DHT22;10367;52.202;5.996;2023-05-19T12:14:50;21.00;81.40
20416;DHT22;10367;52.202;5.996;2023-05-19T12:17:20;20.60;81.40
20416;DHT22;10367;52.202;5.996;2023-05-19T12:19:52;20.40;81.90
20416;DHT22;10367;52.202;5.996;2023-05-19T12:22:21;20.70;81.90
20416;DHT22;10367;52.202;5.996;2023-05-19T12:24:50;21.10;81.30
20416;DHT22;10367;52.202;5.996;2023-05-19T12:27:22;21.10;81.00
20416;DHT22;10367;52.202;5.996;2023-05-19T12:29:53;20.80;80.90
20416;DHT22;10367;52.202;5.996;2023-05-19T12:32:23;20.40;81.40
20416;DHT22;10367;52.202;5.996;2023-05-19T12:34:55;20.20;81.90
20416;DHT22;10367;52.202;5.996;2023-05-19T12:37:25;20.20;81.60
20416;DHT22;10367;52.202;5.996;2023-05-19T12:39:56;20.90;80.70
20416;DHT22;10367;52.202;5.996;2023-05-19T12:42:26;21.30;79.50
20416;DHT22;10367;52.202;5.996;2023-05-19T12:44:59;21.20;78.70
20416;DHT22;10367;52.202;5.996;2023-05-19T12:47:30;21.60;79.10
20416;DHT22;10367;52.202;5.996;2023-05-19T12:50:03;22.00;78.10
20416;DHT22;10367;52.202;5.996;2023-05-19T12:52:34;21.90;77.40
20416;DHT22;10367;52.202;5.996;2023-05-19T12:55:04;21.40;78.00
20416;DHT22;10367;52.202;5.996;2023-05-19T12:57:34;21.30;78.70
20416;DHT22;10367;52.202;5.996;2023-05-19T13:00:04;21.50;77.60
20416;DHT22;10367;52.202;5.996;2023-05-19T13:02:34;22.20;76.10
20416;DHT22;10367;52.202;5.996;2023-05-19T13:05:05;22.60;75.60
20416;DHT22;10367;52.202;5.996;2023-05-19T13:07:34;22.40;74.90
20416;DHT22;10367;52.202;5.996;2023-05-19T13:10:03;22.10;74.90
20416;DHT22;10367;52.202;5.996;2023-05-19T13:12:33;22.00;75.50
20416;DHT22;10367;52.202;5.996;2023-05-19T13:15:01;22.20;74.20
20416;DHT22;10367;52.202;5.996;2023-05-19T13:17:30;22.30;73.90
20416;DHT22;10367;52.202;5.996;2023-05-19T13:20:01;22.50;73.20
20416;DHT22;10367;52.202;5.996;2023-05-19T13:22:31;22.20;74.00
20416;DHT22;10367;52.202;5.996;2023-05-19T13:25:00;21.60;73.40
20416;DHT22;10367;52.202;5.996;2023-05-19T13:27:28;21.20;75.60
20416;DHT22;10367;52.202;5.996;2023-05-19T13:29:57;21.60;74.80
20416;DHT22;10367;52.202;5.996;2023-05-19T13:32:26;21.80;73.60
20416;DHT22;10367;52.202;5.996;2023-05-19T13:34:54;22.20;73.20
20416;DHT22;10367;52.202;5.996;2023-05-19T13:37:23;22.60;72.50
20416;DHT22;10367;52.202;5.996;2023-05-19T13:39:53;22.40;72.40
20416;DHT22;10367;52.202;5.996;2023-05-19T13:42:25;21.60;72.90
20416;DHT22;10367;52.202;5.996;2023-05-19T13:44:54;21.00;74.40
20416;DHT22;10367;52.202;5.996;2023-05-19T13:47:23;20.90;74.60
20416;DHT22;10367;52.202;5.996;2023-05-19T13:49:53;20.90;73.60
20416;DHT22;10367;52.202;5.996;2023-05-19T13:52:22;21.60;73.20
20416;DHT22;10367;52.202;5.996;2023-05-19T13:54:54;21.80;70.90
20416;DHT22;10367;52.202;5.996;2023-05-19T13:57:23;21.90;70.70
20416;DHT22;10367;52.202;5.996;2023-05-19T13:59:53;22.20;70.20
20416;DHT22;10367;52.202;5.996;2023-05-19T14:02:29;22.30;69.60
20416;DHT22;10367;52.202;5.996;2023-05-19T14:04:58;22.10;70.00
20416;DHT22;10367;52.202;5.996;2023-05-19T14:07:28;21.90;70.80
20416;DHT22;10367;52.202;5.996;2023-05-19T14:09:58;21.50;70.80
20416;DHT22;10367;52.202;5.996;2023-05-19T14:12:27;21.10;71.50
20416;DHT22;10367;52.202;5.996;2023-05-19T14:15:13;21.10;70.90
20416;DHT22;10367;52.202;5.996;2023-05-19T14:17:42;21.00;70.90
20416;DHT22;10367;52.202;5.996;2023-05-19T14:20:11;20.90;71.30
20416;DHT22;10367;52.202;5.996;2023-05-19T14:22:40;21.40;70.90
20416;DHT22;10367;52.202;5.996;2023-05-19T14:25:10;22.00;69.80
20416;DHT22;10367;52.202;5.996;2023-05-19T14:27:42;22.20;69.10
20416;DHT22;10367;52.202;5.996;2023-05-19T14:30:11;22.60;68.10
20416;DHT22;10367;52.202;5.996;2023-05-19T14:32:40;22.70;68.10
20416;DHT22;10367;52.202;5.996;2023-05-19T14:35:09;22.60;68.10
20416;DHT22;10367;52.202;5.996;2023-05-19T14:37:38;22.60;68.10
20416;DHT22;10367;52.202;5.996;2023-05-19T14:40:10;22.40;68.10
20416;DHT22;10367;52.202;5.996;2023-05-19T14:42:39;22.10;68.90
20416;DHT22;10367;52.202;5.996;2023-05-19T14:45:08;22.50;68.60
20416;DHT22;10367;52.202;5.996;2023-05-19T14:47:37;22.30;68.20
20416;DHT22;10367;52.202;5.996;2023-05-19T14:50:07;22.10;67.50
20416;DHT22;10367;52.202;5.996;2023-05-19T14:52:35;22.30;68.20
20416;DHT22;10367;52.202;5.996;2023-05-19T14:55:05;22.60;66.80
20416;DHT22;10367;52.202;5.996;2023-05-19T14:57:35;22.60;66.70
20416;DHT22;10367;52.202;5.996;2023-05-19T15:00:05;22.90;66.60
20416;DHT22;10367;52.202;5.996;2023-05-19T15:02:35;23.40;65.60
20416;DHT22;10367;52.202;5.996;2023-05-19T15:05:04;23.10;65.20
20416;DHT22;10367;52.202;5.996;2023-05-19T15:07:33;22.90;65.20
20416;DHT22;10367;52.202;5.996;2023-05-19T15:10:02;22.80;64.70
20416;DHT22;10367;52.202;5.996;2023-05-19T15:12:31;22.50;65.80
20416;DHT22;10367;52.202;5.996;2023-05-19T15:15:01;22.00;66.20
20416;DHT22;10367;52.202;5.996;2023-05-19T15:17:30;22.00;66.10
20416;DHT22;10367;52.202;5.996;2023-05-19T15:19:59;22.60;65.50
20416;DHT22;10367;52.202;5.996;2023-05-19T15:22:27;23.00;64.40
20416;DHT22;10367;52.202;5.996;2023-05-19T15:24:56;23.30;63.80
20416;DHT22;10367;52.202;5.996;2023-05-19T15:27:25;23.40;63.40
20416;DHT22;10367;52.202;5.996;2023-05-19T15:29:54;23.20;62.90
20416;DHT22;10367;52.202;5.996;2023-05-19T15:32:26;23.00;62.90
20416;DHT22;10367;52.202;5.996;2023-05-19T15:34:54;23.30;62.70
20416;DHT22;10367;52.202;5.996;2023-05-19T15:37:23;23.30;62.80
20416;DHT22;10367;52.202;5.996;2023-05-19T15:39:52;23.20;63.10
20416;DHT22;10367;52.202;5.996;2023-05-19T15:42:21;22.30;64.60
20416;DHT22;10367;52.202;5.996;2023-05-19T15:44:50;21.70;65.40
20416;DHT22;10367;52.202;5.996;2023-05-19T15:47:19;21.20;66.10
20416;DHT22;10367;52.202;5.996;2023-05-19T15:49:49;20.80;66.70
20416;DHT22;10367;52.202;5.996;2023-05-19T15:52:17;20.90;66.90
20416;DHT22;10367;52.202;5.996;2023-05-19T15:54:46;21.30;65.80
20416;DHT22;10367;52.202;5.996;2023-05-19T15:57:15;21.80;64.70
20416;DHT22;10367;52.202;5.996;2023-05-19T15:59:44;22.20;63.10